Time,TemperatureF,DewpointF,PressureIn,WindDirection,WindDirectionDegrees,WindSpeedMPH,WindSpeedGustMPH,Humidity,HourlyPrecipIn,Conditions,Clouds,dailyrainin,SoftwareType,DateUTC
2013-07-03 00:05:00,72.1,72.0,30.11,SSE,157,0.0,0.0,98,0.00,,,0.00,weatherlink.com 1.10,2013-07-03 04:05:00,
2013-07-03 00:20:00,72.2,72.0,30.10,SSE,157,0.0,0.0,98,0.00,,,0.00,weatherlink.com 1.10,2013-07-03 04:20:00,
2013-07-03 00:35:00,72.3,72.0,30.10,SSE,159,0.0,2.0,98,0.00,,,0.00,weatherlink.com 1.10,2013-07-03 04:35:00,
2013-07-03 00:50:00,72.4,72.0,30.10,SSE,159,0.0,1.0,98,0.00,,,0.00,weatherlink.com 1.10,2013-07-03 04:50:00,
2013-07-03 01:05:00,72.5,72.0,30.10,SSE,159,0.0,1.0,99,0.00,,,0.00,weatherlink.com 1.10,2013-07-03 05:05:00,
2013-07-03 01:20:00,72.5,72.0,30.09,SSE,155,0.0,1.0,99,0.00,,,0.00,weatherlink.com 1.10,2013-07-03 05:20:00,
2013-07-03 01:35:00,72.6,72.0,30.09,SSE,155,0.0,1.0,99,0.00,,,0.00,weatherlink.com 1.10,2013-07-03 05:35:00,
2013-07-03 01:50:00,72.7,72.0,30.10,SSE,155,0.0,2.0,99,0.00,,,0.00,weatherlink.com 1.10,2013-07-03 05:50:00,
2013-07-03 02:05:00,72.7,72.0,30.09,SSE,154,0.0,2.0,99,0.00,,,0.00,weatherlink.com 1.10,2013-07-03 06:05:00,
2013-07-03 02:35:00,72.8,73.0,30.09,SSE,154,0.0,2.0,99,0.00,,,0.00,weatherlink.com 1.10,2013-07-03 06:35:00,
2013-07-03 03:20:00,72.7,72.0,30.09,SSE,154,0.0,1.0,99,0.00,,,0.00,weatherlink.com 1.10,2013-07-03 07:20:00,
2013-07-03 03:35:00,72.7,72.0,30.10,SSE,150,1.0,3.0,99,0.00,,,0.00,weatherlink.com 1.10,2013-07-03 07:35:00,
2013-07-03 03:50:00,72.7,72.0,30.10,SSE,150,0.0,0.0,99,0.00,,,0.00,weatherlink.com 1.10,2013-07-03 07:50:00,
2013-07-03 04:05:00,72.6,72.0,30.09,SSE,150,0.0,0.0,99,0.00,,,0.00,weatherlink.com 1.10,2013-07-03 08:05:00,
2013-07-03 04:20:00,72.6,72.0,30.10,SSE,150,0.0,0.0,99,0.00,,,0.00,weatherlink.com 1.10,2013-07-03 08:20:00,
2013-07-03 04:35:00,72.5,72.0,30.10,SSE,150,0.0,0.0,99,0.00,,,0.00,weatherlink.com 1.10,2013-07-03 08:35:00,
2013-07-03 05:05:00,72.6,72.0,30.11,SSE,150,0.0,0.0,99,0.00,,,0.00,weatherlink.com 1.10,2013-07-03 09:05:00,
2013-07-03 05:20:00,72.6,72.0,30.11,SSE,150,0.0,0.0,99,0.00,,,0.00,weatherlink.com 1.10,2013-07-03 09:20:00,
2013-07-03 05:35:00,72.6,72.0,30.11,SSE,150,0.0,0.0,99,0.00,,,0.00,weatherlink.com 1.10,2013-07-03 09:35:00,
2013-07-03 05:51:00,72.6,72.0,30.11,SSE,150,0.0,0.0,99,0.00,,,0.00,weatherlink.com 1.10,2013-07-03 09:51:00,
2013-07-03 06:06:00,72.6,72.0,30.12,SSE,150,0.0,0.0,99,0.00,,,0.00,weatherlink.com 1.10,2013-07-03 10:06:00,
2013-07-03 06:21:00,72.5,72.0,30.12,SSE,150,0.0,0.0,99,0.00,,,0.00,weatherlink.com 1.10,2013-07-03 10:21:00,
2013-07-03 06:36:00,72.6,72.0,30.13,SSE,150,0.0,0.0,99,0.00,,,0.00,weatherlink.com 1.10,2013-07-03 10:36:00,
2013-07-03 06:51:00,72.7,72.0,30.14,SSE,150,0.0,0.0,99,0.00,,,0.00,weatherlink.com 1.10,2013-07-03 10:51:00,
2013-07-03 07:06:00,72.8,73.0,30.14,SSE,150,0.0,0.0,99,0.00,,,0.00,weatherlink.com 1.10,2013-07-03 11:06:00,
2013-07-03 07:21:00,72.8,73.0,30.14,SSE,150,0.0,0.0,99,0.00,,,0.00,weatherlink.com 1.10,2013-07-03 11:21:00,
2013-07-03 07:36:00,72.7,72.0,30.15,SSE,150,0.0,0.0,99,0.00,,,0.00,weatherlink.com 1.10,2013-07-03 11:36:00,
2013-07-03 07:51:00,72.8,73.0,30.15,SSE,150,0.0,0.0,99,0.00,,,0.00,weatherlink.com 1.10,2013-07-03 11:51:00,
2013-07-03 08:06:00,72.9,73.0,30.16,SSE,150,0.0,1.0,99,0.00,,,0.00,weatherlink.com 1.10,2013-07-03 12:06:00,
2013-07-03 08:21:00,73.0,73.0,30.16,SSE,150,0.0,0.0,99,0.00,,,0.00,weatherlink.com 1.10,2013-07-03 12:21:00,
2013-07-03 08:36:00,73.1,73.0,30.16,SSE,150,0.0,0.0,99,0.00,,,0.00,weatherlink.com 1.10,2013-07-03 12:36:00,
2013-07-03 08:51:00,73.3,73.0,30.16,SSE,150,0.0,0.0,99,0.00,,,0.00,weatherlink.com 1.10,2013-07-03 12:51:00,
2013-07-03 09:21:00,73.9,74.0,30.16,SSE,149,0.0,1.0,99,0.00,,,0.00,weatherlink.com 1.10,2013-07-03 13:21:00,
2013-07-03 09:36:00,74.3,74.0,30.16,SSE,149,0.0,1.0,99,0.00,,,0.00,weatherlink.com 1.10,2013-07-03 13:36:00,
2013-07-03 09:51:00,74.8,74.0,30.16,SSE,148,0.0,2.0,98,0.00,,,0.00,weatherlink.com 1.10,2013-07-03 13:51:00,
2013-07-03 10:06:00,75.6,75.0,30.16,SE,142,0.0,1.0,98,0.00,,,0.00,weatherlink.com 1.10,2013-07-03 14:06:00,
2013-07-03 10:21:00,76.1,75.0,30.16,East,80,0.0,3.0,95,0.00,,,0.00,weatherlink.com 1.10,2013-07-03 14:21:00,
2013-07-03 10:36:00,76.5,75.0,30.17,SE,136,0.0,2.0,95,0.00,,,0.00,weatherlink.com 1.10,2013-07-03 14:36:00,
2013-07-03 10:51:00,77.3,75.0,30.17,SE,136,0.0,2.0,93,0.00,,,0.00,weatherlink.com 1.10,2013-07-03 14:51:00,
2013-07-03 11:06:00,78.2,75.0,30.17,SE,136,0.0,2.0,91,0.00,,,0.00,weatherlink.com 1.10,2013-07-03 15:06:00,
2013-07-03 11:21:00,78.2,75.0,30.18,SE,140,0.0,2.0,91,0.00,,,0.00,weatherlink.com 1.10,2013-07-03 15:21:00,
2013-07-03 11:36:00,77.6,75.0,30.18,SE,139,1.0,2.0,92,0.00,,,0.00,weatherlink.com 1.10,2013-07-03 15:36:00,
2013-07-03 11:51:00,76.2,74.0,30.17,ENE,76,0.0,1.0,94,0.00,,,0.00,weatherlink.com 1.10,2013-07-03 15:51:00,
2013-07-03 12:21:00,77.1,76.0,30.17,ENE,76,1.0,1.0,97,0.00,,,0.00,weatherlink.com 1.10,2013-07-03 16:21:00,
2013-07-03 12:36:00,77.2,76.0,30.17,ENE,78,0.0,3.0,96,0.00,,,0.00,weatherlink.com 1.10,2013-07-03 16:36:00,
2013-07-03 13:06:00,77.2,76.0,30.16,SE,125,0.0,1.0,95,0.00,,,0.00,weatherlink.com 1.10,2013-07-03 17:06:00,
2013-07-03 13:21:00,76.9,75.0,30.16,SE,125,0.0,1.0,95,0.00,,,0.00,weatherlink.com 1.10,2013-07-03 17:21:00,
2013-07-03 13:36:00,76.4,75.0,30.16,SE,124,0.0,1.0,95,0.00,,,0.00,weatherlink.com 1.10,2013-07-03 17:36:00,
2013-07-03 13:51:00,76.1,75.0,30.16,SE,124,1.0,1.0,96,0.00,,,0.00,weatherlink.com 1.10,2013-07-03 17:51:00,
2013-07-03 14:06:00,76.5,76.0,30.16,SE,124,1.0,1.0,98,0.00,,,0.00,weatherlink.com 1.10,2013-07-03 18:06:00,
2013-07-03 14:21:00,77.6,77.0,30.16,SE,124,0.0,2.0,98,0.00,,,0.00,weatherlink.com 1.10,2013-07-03 18:21:00,
2013-07-03 14:36:00,78.6,77.0,30.15,East,80,1.0,3.0,95,0.00,,,0.00,weatherlink.com 1.10,2013-07-03 18:36:00,
2013-07-03 14:51:00,79.4,78.0,30.15,East,80,0.0,2.0,94,0.00,,,0.00,weatherlink.com 1.10,2013-07-03 18:51:00,
2013-07-03 15:21:00,79.9,77.0,30.14,East,80,0.0,2.0,90,0.00,,,0.00,weatherlink.com 1.10,2013-07-03 19:21:00,
2013-07-03 15:36:00,79.6,77.0,30.13,East,100,1.0,1.0,91,0.00,,,0.00,weatherlink.com 1.10,2013-07-03 19:36:00,
2013-07-03 15:51:00,80.1,77.0,30.14,East,100,0.0,2.0,89,0.00,,,0.00,weatherlink.com 1.10,2013-07-03 19:51:00,
2013-07-03 16:06:00,79.2,76.0,30.14,East,96,1.0,2.0,90,0.00,,,0.00,weatherlink.com 1.10,2013-07-03 20:06:00,
2013-07-03 16:51:00,76.2,75.0,30.13,ESE,121,1.0,1.0,95,0.00,,,0.00,weatherlink.com 1.10,2013-07-03 20:51:00,
2013-07-03 17:06:00,75.7,75.0,30.13,ESE,121,0.0,2.0,96,0.00,,,0.00,weatherlink.com 1.10,2013-07-03 21:06:00,
2013-07-03 17:21:00,75.9,75.0,30.13,ESE,121,0.0,3.0,97,0.00,,,0.00,weatherlink.com 1.10,2013-07-03 21:21:00,
2013-07-03 17:37:00,76.1,75.0,30.13,ESE,121,0.0,2.0,97,0.00,,,0.00,weatherlink.com 1.10,2013-07-03 21:37:00,
2013-07-03 18:07:00,76.1,75.0,30.12,ESE,121,0.0,1.0,97,0.00,,,0.00,weatherlink.com 1.10,2013-07-03 22:07:00,
2013-07-03 18:37:00,76.2,75.0,30.13,ESE,121,0.0,2.0,97,0.00,,,0.00,weatherlink.com 1.10,2013-07-03 22:37:00,
2013-07-03 18:52:00,75.9,75.0,30.14,ESE,121,0.0,3.0,97,0.00,,,0.00,weatherlink.com 1.10,2013-07-03 22:52:00,
2013-07-03 19:07:00,75.8,75.0,30.15,ESE,121,0.0,1.0,97,0.00,,,0.00,weatherlink.com 1.10,2013-07-03 23:07:00,
2013-07-03 19:22:00,75.6,75.0,30.15,ESE,121,0.0,1.0,97,0.00,,,0.00,weatherlink.com 1.10,2013-07-03 23:22:00,
2013-07-03 19:37:00,75.5,75.0,30.15,ESE,121,0.0,0.0,97,0.00,,,0.00,weatherlink.com 1.10,2013-07-03 23:37:00,
2013-07-03 20:07:00,75.1,74.0,30.16,ESE,121,0.0,1.0,97,0.00,,,0.00,weatherlink.com 1.10,2013-07-04 00:07:00,
2013-07-03 20:22:00,74.8,74.0,30.16,ESE,121,0.0,1.0,97,0.00,,,0.00,weatherlink.com 1.10,2013-07-04 00:22:00,
2013-07-03 20:37:00,74.6,74.0,30.16,ESE,121,0.0,2.0,97,0.00,,,0.00,weatherlink.com 1.10,2013-07-04 00:37:00,
2013-07-03 21:07:00,74.1,73.0,30.16,ESE,121,0.0,3.0,97,0.00,,,0.00,weatherlink.com 1.10,2013-07-04 01:07:00,
2013-07-03 21:37:00,73.5,73.0,30.16,ESE,121,0.0,1.0,97,0.00,,,0.00,weatherlink.com 1.10,2013-07-04 01:37:00,
2013-07-03 21:52:00,73.2,73.0,30.16,ESE,121,0.0,1.0,98,0.00,,,0.00,weatherlink.com 1.10,2013-07-04 01:52:00,
2013-07-03 22:37:00,73.1,73.0,30.17,ESE,121,0.0,1.0,98,0.00,,,0.00,weatherlink.com 1.10,2013-07-04 02:37:00,
2013-07-03 22:52:00,73.1,73.0,30.17,ESE,121,0.0,1.0,98,0.00,,,0.00,weatherlink.com 1.10,2013-07-04 02:52:00,
2013-07-03 23:07:00,73.1,73.0,30.17,ESE,121,0.0,2.0,99,0.00,,,0.00,weatherlink.com 1.10,2013-07-04 03:07:00,
2013-07-03 23:22:00,73.2,73.0,30.18,ESE,121,0.0,1.0,99,0.00,,,0.00,weatherlink.com 1.10,2013-07-04 03:22:00,
2013-07-03 23:37:00,73.2,73.0,30.18,ESE,121,1.0,2.0,99,0.00,,,0.00,weatherlink.com 1.10,2013-07-04 03:37:00,
2013-07-03 23:52:00,73.3,73.0,30.18,ESE,121,1.0,2.0,99,0.00,,,0.00,weatherlink.com 1.10,2013-07-04 03:52:00,